sensor_id;sensor_type;location;lat;lon;timestamp;temperature;humidity
52739;DHT22;52466;40.122;18.318;2022-07-06T00:02:31;28.90;75.80
52739;DHT22;52466;40.122;18.318;2022-07-06T00:05:39;28.90;76.20
52739;DHT22;52466;40.122;18.318;2022-07-06T00:08:46;28.80;76.30
52739;DHT22;52466;40.122;18.318;2022-07-06T00:11:54;28.80;76.50
52739;DHT22;52466;40.122;18.318;2022-07-06T00:15:02;28.70;76.70
52739;DHT22;52466;40.122;18.318;2022-07-06T00:18:10;28.60;76.90
52739;DHT22;52466;40.122;18.318;2022-07-06T00:21:18;28.60;77.00
52739;DHT22;52466;40.122;18.318;2022-07-06T00:24:26;28.70;76.80
52739;DHT22;52466;40.122;18.318;2022-07-06T00:27:34;28.70;76.90
52739;DHT22;52466;40.122;18.318;2022-07-06T00:30:42;28.60;76.70
52739;DHT22;52466;40.122;18.318;2022-07-06T00:33:49;28.60;76.30
52739;DHT22;52466;40.122;18.318;2022-07-06T00:36:57;28.70;76.20
52739;DHT22;52466;40.122;18.318;2022-07-06T00:40:06;28.70;76.00
52739;DHT22;52466;40.122;18.318;2022-07-06T00:43:14;28.80;75.90
52739;DHT22;52466;40.122;18.318;2022-07-06T00:46:28;28.80;75.70
52739;DHT22;52466;40.122;18.318;2022-07-06T00:49:38;28.70;75.90
52739;DHT22;52466;40.122;18.318;2022-07-06T00:53:06;28.50;76.40
52739;DHT22;52466;40.122;18.318;2022-07-06T00:56:14;28.50;76.50
52739;DHT22;52466;40.122;18.318;2022-07-06T00:59:24;28.30;76.60
52739;DHT22;52466;40.122;18.318;2022-07-06T01:02:32;28.30;76.60
52739;DHT22;52466;40.122;18.318;2022-07-06T01:05:40;28.20;76.70
52739;DHT22;52466;40.122;18.318;2022-07-06T01:08:48;28.20;76.50
52739;DHT22;52466;40.122;18.318;2022-07-06T01:11:57;28.10;76.20
52739;DHT22;52466;40.122;18.318;2022-07-06T01:15:07;28.00;76.00
52739;DHT22;52466;40.122;18.318;2022-07-06T01:18:16;28.00;75.90
52739;DHT22;52466;40.122;18.318;2022-07-06T01:21:24;28.00;75.80
52739;DHT22;52466;40.122;18.318;2022-07-06T01:24:34;28.00;75.80
52739;DHT22;52466;40.122;18.318;2022-07-06T01:27:43;28.00;75.80
52739;DHT22;52466;40.122;18.318;2022-07-06T01:30:50;28.00;75.80
52739;DHT22;52466;40.122;18.318;2022-07-06T01:33:59;27.90;75.70
52739;DHT22;52466;40.122;18.318;2022-07-06T01:37:07;27.80;75.80
52739;DHT22;52466;40.122;18.318;2022-07-06T01:40:15;27.70;75.90
52739;DHT22;52466;40.122;18.318;2022-07-06T01:43:22;27.60;75.80
52739;DHT22;52466;40.122;18.318;2022-07-06T01:46:31;27.50;75.50
52739;DHT22;52466;40.122;18.318;2022-07-06T01:49:39;27.50;75.10
52739;DHT22;52466;40.122;18.318;2022-07-06T01:52:46;27.40;74.60
52739;DHT22;52466;40.122;18.318;2022-07-06T01:55:54;27.30;74.60
52739;DHT22;52466;40.122;18.318;2022-07-06T01:59:02;27.20;74.20
52739;DHT22;52466;40.122;18.318;2022-07-06T02:02:10;27.10;74.10
52739;DHT22;52466;40.122;18.318;2022-07-06T02:05:19;27.00;74.30
52739;DHT22;52466;40.122;18.318;2022-07-06T02:08:27;27.00;74.50
52739;DHT22;52466;40.122;18.318;2022-07-06T02:11:35;27.00;74.40
52739;DHT22;52466;40.122;18.318;2022-07-06T02:14:42;27.00;74.60
52739;DHT22;52466;40.122;18.318;2022-07-06T02:17:50;27.00;74.90
52739;DHT22;52466;40.122;18.318;2022-07-06T02:20:59;27.00;75.20
52739;DHT22;52466;40.122;18.318;2022-07-06T02:24:07;27.00;75.60
52739;DHT22;52466;40.122;18.318;2022-07-06T02:27:16;27.00;76.00
52739;DHT22;52466;40.122;18.318;2022-07-06T02:30:23;27.00;76.40
52739;DHT22;52466;40.122;18.318;2022-07-06T02:33:31;27.00;76.90
52739;DHT22;52466;40.122;18.318;2022-07-06T02:36:39;27.00;77.30
52739;DHT22;52466;40.122;18.318;2022-07-06T02:39:47;26.90;77.70
52739;DHT22;52466;40.122;18.318;2022-07-06T02:42:55;26.90;78.10
52739;DHT22;52466;40.122;18.318;2022-07-06T02:46:03;26.90;78.30
52739;DHT22;52466;40.122;18.318;2022-07-06T02:49:12;26.90;78.50
52739;DHT22;52466;40.122;18.318;2022-07-06T02:52:20;26.90;78.80
52739;DHT22;52466;40.122;18.318;2022-07-06T02:55:29;26.80;79.20
52739;DHT22;52466;40.122;18.318;2022-07-06T02:58:38;26.80;79.50
52739;DHT22;52466;40.122;18.318;2022-07-06T03:01:50;26.80;79.70
52739;DHT22;52466;40.122;18.318;2022-07-06T03:04:58;26.80;80.00
52739;DHT22;52466;40.122;18.318;2022-07-06T03:08:06;26.80;80.20
52739;DHT22;52466;40.122;18.318;2022-07-06T03:11:14;26.70;80.60
52739;DHT22;52466;40.122;18.318;2022-07-06T03:14:22;26.70;81.10
52739;DHT22;52466;40.122;18.318;2022-07-06T03:17:30;26.60;81.40
52739;DHT22;52466;40.122;18.318;2022-07-06T03:20:37;26.60;81.90
52739;DHT22;52466;40.122;18.318;2022-07-06T03:23:48;26.60;82.30
52739;DHT22;52466;40.122;18.318;2022-07-06T03:26:58;26.50;82.50
52739;DHT22;52466;40.122;18.318;2022-07-06T03:30:06;26.60;82.70
52739;DHT22;52466;40.122;18.318;2022-07-06T03:33:14;26.50;83.00
52739;DHT22;52466;40.122;18.318;2022-07-06T03:36:22;26.50;83.20
52739;DHT22;52466;40.122;18.318;2022-07-06T03:39:30;26.60;83.40
52739;DHT22;52466;40.122;18.318;2022-07-06T03:42:39;26.60;83.50
52739;DHT22;52466;40.122;18.318;2022-07-06T03:45:47;26.70;83.50
52739;DHT22;52466;40.122;18.318;2022-07-06T03:48:56;26.70;83.50
52739;DHT22;52466;40.122;18.318;2022-07-06T03:52:04;26.80;83.50
52739;DHT22;52466;40.122;18.318;2022-07-06T03:55:18;26.90;83.20
52739;DHT22;52466;40.122;18.318;2022-07-06T03:58:33;27.00;82.90
52739;DHT22;52466;40.122;18.318;2022-07-06T04:01:41;27.10;82.50
52739;DHT22;52466;40.122;18.318;2022-07-06T04:04:51;27.30;81.90
52739;DHT22;52466;40.122;18.318;2022-07-06T04:07:59;27.30;81.40
52739;DHT22;52466;40.122;18.318;2022-07-06T04:11:13;27.40;81.20
52739;DHT22;52466;40.122;18.318;2022-07-06T04:14:21;27.50;80.70
52739;DHT22;52466;40.122;18.318;2022-07-06T04:17:30;27.50;80.30
52739;DHT22;52466;40.122;18.318;2022-07-06T04:21:01;27.60;79.90
52739;DHT22;52466;40.122;18.318;2022-07-06T04:24:11;27.70;79.50
52739;DHT22;52466;40.122;18.318;2022-07-06T04:27:19;27.70;79.20
52739;DHT22;52466;40.122;18.318;2022-07-06T04:30:27;27.70;79.10
52739;DHT22;52466;40.122;18.318;2022-07-06T04:33:37;27.80;78.90
52739;DHT22;52466;40.122;18.318;2022-07-06T04:36:44;27.90;78.60
52739;DHT22;52466;40.122;18.318;2022-07-06T04:39:52;28.00;78.30
52739;DHT22;52466;40.122;18.318;2022-07-06T04:43:01;28.10;78.00
52739;DHT22;52466;40.122;18.318;2022-07-06T04:46:10;28.20;77.70
52739;DHT22;52466;40.122;18.318;2022-07-06T04:49:20;28.40;77.40
52739;DHT22;52466;40.122;18.318;2022-07-06T04:52:28;28.80;76.50
52739;DHT22;52466;40.122;18.318;2022-07-06T04:55:36;29.10;75.00
52739;DHT22;52466;40.122;18.318;2022-07-06T04:58:44;29.00;74.50
52739;DHT22;52466;40.122;18.318;2022-07-06T05:01:55;29.10;74.30
52739;DHT22;52466;40.122;18.318;2022-07-06T05:05:04;29.30;74.00
52739;DHT22;52466;40.122;18.318;2022-07-06T05:08:13;29.50;73.30
52739;DHT22;52466;40.122;18.318;2022-07-06T05:11:53;29.50;72.70
52739;DHT22;52466;40.122;18.318;2022-07-06T05:15:01;29.60;72.90
52739;DHT22;52466;40.122;18.318;2022-07-06T05:18:10;29.50;72.40
52739;DHT22;52466;40.122;18.318;2022-07-06T05:21:18;29.50;72.30
52739;DHT22;52466;40.122;18.318;2022-07-06T05:24:27;29.60;72.00
52739;DHT22;52466;40.122;18.318;2022-07-06T05:27:35;29.90;71.10
52739;DHT22;52466;40.122;18.318;2022-07-06T05:30:43;30.30;69.70
52739;DHT22;52466;40.122;18.318;2022-07-06T05:33:52;30.60;68.50
52739;DHT22;52466;40.122;18.318;2022-07-06T05:37:00;30.90;67.40
52739;DHT22;52466;40.122;18.318;2022-07-06T05:40:09;31.20;65.90
52739;DHT22;52466;40.122;18.318;2022-07-06T05:43:18;31.50;65.30
52739;DHT22;52466;40.122;18.318;2022-07-06T05:46:26;31.70;63.90
52739;DHT22;52466;40.122;18.318;2022-07-06T05:49:36;31.80;63.00
52739;DHT22;52466;40.122;18.318;2022-07-06T05:53:04;32.10;62.80
52739;DHT22;52466;40.122;18.318;2022-07-06T05:56:12;32.50;60.90
52739;DHT22;52466;40.122;18.318;2022-07-06T05:59:20;33.80;58.00
52739;DHT22;52466;40.122;18.318;2022-07-06T06:02:41;34.30;54.40
52739;DHT22;52466;40.122;18.318;2022-07-06T06:05:51;34.10;54.50
52739;DHT22;52466;40.122;18.318;2022-07-06T06:09:00;33.90;55.10
52739;DHT22;52466;40.122;18.318;2022-07-06T06:12:08;33.40;56.60
52739;DHT22;52466;40.122;18.318;2022-07-06T06:15:16;32.90;57.70
52739;DHT22;52466;40.122;18.318;2022-07-06T06:18:24;31.90;60.70
52739;DHT22;52466;40.122;18.318;2022-07-06T06:21:32;31.40;62.60
52739;DHT22;52466;40.122;18.318;2022-07-06T06:24:40;31.20;63.60
52739;DHT22;52466;40.122;18.318;2022-07-06T06:27:48;31.70;61.60
52739;DHT22;52466;40.122;18.318;2022-07-06T06:30:55;31.90;61.10
52739;DHT22;52466;40.122;18.318;2022-07-06T06:34:03;31.90;60.60
52739;DHT22;52466;40.122;18.318;2022-07-06T06:37:11;31.80;61.20
52739;DHT22;52466;40.122;18.318;2022-07-06T06:40:18;32.00;60.60
52739;DHT22;52466;40.122;18.318;2022-07-06T06:43:26;32.20;59.90
52739;DHT22;52466;40.122;18.318;2022-07-06T06:46:41;32.40;59.40
52739;DHT22;52466;40.122;18.318;2022-07-06T06:49:48;32.80;58.70
52739;DHT22;52466;40.122;18.318;2022-07-06T06:52:56;33.50;57.80
52739;DHT22;52466;40.122;18.318;2022-07-06T06:56:04;34.00;55.00
52739;DHT22;52466;40.122;18.318;2022-07-06T06:59:11;34.40;54.20
52739;DHT22;52466;40.122;18.318;2022-07-06T07:02:19;34.50;53.40
52739;DHT22;52466;40.122;18.318;2022-07-06T07:05:27;34.40;54.30
52739;DHT22;52466;40.122;18.318;2022-07-06T07:08:35;34.70;53.60
52739;DHT22;52466;40.122;18.318;2022-07-06T07:11:42;34.50;52.60
52739;DHT22;52466;40.122;18.318;2022-07-06T07:14:50;33.80;53.50
52739;DHT22;52466;40.122;18.318;2022-07-06T07:18:01;33.60;54.80
52739;DHT22;52466;40.122;18.318;2022-07-06T07:21:08;33.90;54.40
52739;DHT22;52466;40.122;18.318;2022-07-06T07:24:16;34.30;52.90
52739;DHT22;52466;40.122;18.318;2022-07-06T07:27:24;34.50;53.10
52739;DHT22;52466;40.122;18.318;2022-07-06T07:30:32;34.20;53.00
52739;DHT22;52466;40.122;18.318;2022-07-06T07:33:58;34.10;53.30
52739;DHT22;52466;40.122;18.318;2022-07-06T07:37:09;34.10;53.80
52739;DHT22;52466;40.122;18.318;2022-07-06T07:40:17;34.10;53.20
52739;DHT22;52466;40.122;18.318;2022-07-06T07:43:48;34.20;53.00
52739;DHT22;52466;40.122;18.318;2022-07-06T07:46:56;34.10;53.00
52739;DHT22;52466;40.122;18.318;2022-07-06T07:50:04;34.10;54.00
52739;DHT22;52466;40.122;18.318;2022-07-06T07:53:12;33.70;55.60
52739;DHT22;52466;40.122;18.318;2022-07-06T07:56:20;33.50;56.60
52739;DHT22;52466;40.122;18.318;2022-07-06T07:59:29;33.30;56.20
52739;DHT22;52466;40.122;18.318;2022-07-06T08:02:37;32.90;55.50
52739;DHT22;52466;40.122;18.318;2022-07-06T08:05:44;32.50;56.80
52739;DHT22;52466;40.122;18.318;2022-07-06T08:08:54;32.20;57.40
52739;DHT22;52466;40.122;18.318;2022-07-06T08:12:02;32.30;58.20
52739;DHT22;52466;40.122;18.318;2022-07-06T08:15:10;32.20;59.00
52739;DHT22;52466;40.122;18.318;2022-07-06T08:18:18;32.40;58.60
52739;DHT22;52466;40.122;18.318;2022-07-06T08:21:26;32.50;58.10
52739;DHT22;52466;40.122;18.318;2022-07-06T08:24:34;32.70;57.80
52739;DHT22;52466;40.122;18.318;2022-07-06T08:27:42;32.70;57.20
52739;DHT22;52466;40.122;18.318;2022-07-06T08:30:50;32.80;57.70
52739;DHT22;52466;40.122;18.318;2022-07-06T08:33:58;32.80;57.70
52739;DHT22;52466;40.122;18.318;2022-07-06T08:37:06;32.80;57.20
52739;DHT22;52466;40.122;18.318;2022-07-06T08:40:15;32.80;57.80
52739;DHT22;52466;40.122;18.318;2022-07-06T08:43:22;32.80;57.30
52739;DHT22;52466;40.122;18.318;2022-07-06T08:46:30;32.70;56.50
52739;DHT22;52466;40.122;18.318;2022-07-06T08:49:39;32.70;56.00
52739;DHT22;52466;40.122;18.318;2022-07-06T08:52:48;32.90;55.40
52739;DHT22;52466;40.122;18.318;2022-07-06T08:55:57;33.00;54.10
52739;DHT22;52466;40.122;18.318;2022-07-06T08:59:05;33.00;53.10
52739;DHT22;52466;40.122;18.318;2022-07-06T09:02:16;33.10;51.80
52739;DHT22;52466;40.122;18.318;2022-07-06T09:05:25;33.10;48.70
52739;DHT22;52466;40.122;18.318;2022-07-06T09:08:33;33.10;50.00
52739;DHT22;52466;40.122;18.318;2022-07-06T09:11:42;33.10;50.30
52739;DHT22;52466;40.122;18.318;2022-07-06T09:14:50;33.10;48.00
52739;DHT22;52466;40.122;18.318;2022-07-06T09:17:58;32.90;46.00
52739;DHT22;52466;40.122;18.318;2022-07-06T09:21:06;32.90;46.30
52739;DHT22;52466;40.122;18.318;2022-07-06T09:24:14;32.80;46.20
52739;DHT22;52466;40.122;18.318;2022-07-06T09:27:22;32.90;45.40
52739;DHT22;52466;40.122;18.318;2022-07-06T09:30:29;33.00;46.80
52739;DHT22;52466;40.122;18.318;2022-07-06T09:33:37;33.00;46.40
52739;DHT22;52466;40.122;18.318;2022-07-06T09:36:47;33.00;45.60
52739;DHT22;52466;40.122;18.318;2022-07-06T09:39:55;33.10;45.40
52739;DHT22;52466;40.122;18.318;2022-07-06T09:43:18;33.20;46.20
52739;DHT22;52466;40.122;18.318;2022-07-06T09:46:28;33.10;44.80
52739;DHT22;52466;40.122;18.318;2022-07-06T09:49:38;33.20;46.00
52739;DHT22;52466;40.122;18.318;2022-07-06T09:52:54;33.40;44.50
52739;DHT22;52466;40.122;18.318;2022-07-06T09:56:03;33.40;43.20
52739;DHT22;52466;40.122;18.318;2022-07-06T09:59:13;33.40;43.40
52739;DHT22;52466;40.122;18.318;2022-07-06T10:02:21;33.40;44.10
52739;DHT22;52466;40.122;18.318;2022-07-06T10:05:31;33.50;44.20
52739;DHT22;52466;40.122;18.318;2022-07-06T10:08:39;33.60;43.40
52739;DHT22;52466;40.122;18.318;2022-07-06T10:11:58;33.60;42.90
52739;DHT22;52466;40.122;18.318;2022-07-06T10:15:07;33.80;42.30
52739;DHT22;52466;40.122;18.318;2022-07-06T10:18:15;33.80;42.00
52739;DHT22;52466;40.122;18.318;2022-07-06T10:21:23;33.80;41.20
52739;DHT22;52466;40.122;18.318;2022-07-06T10:24:31;34.00;40.50
52739;DHT22;52466;40.122;18.318;2022-07-06T10:27:42;34.00;40.50
52739;DHT22;52466;40.122;18.318;2022-07-06T10:30:50;33.90;41.90
52739;DHT22;52466;40.122;18.318;2022-07-06T10:34:04;33.90;41.30
52739;DHT22;52466;40.122;18.318;2022-07-06T10:37:27;33.90;42.20
52739;DHT22;52466;40.122;18.318;2022-07-06T10:40:37;34.00;43.60
52739;DHT22;52466;40.122;18.318;2022-07-06T10:44:21;34.00;43.30
52739;DHT22;52466;40.122;18.318;2022-07-06T10:47:29;34.10;43.80
52739;DHT22;52466;40.122;18.318;2022-07-06T10:50:42;34.00;43.10
52739;DHT22;52466;40.122;18.318;2022-07-06T10:53:58;34.10;43.40
52739;DHT22;52466;40.122;18.318;2022-07-06T10:57:10;34.20;43.90
52739;DHT22;52466;40.122;18.318;2022-07-06T11:00:22;34.00;44.20
52739;DHT22;52466;40.122;18.318;2022-07-06T11:06:52;34.00;44.00
52739;DHT22;52466;40.122;18.318;2022-07-06T11:10:00;33.90;44.60
52739;DHT22;52466;40.122;18.318;2022-07-06T11:13:07;33.90;43.70
52739;DHT22;52466;40.122;18.318;2022-07-06T11:16:34;34.00;44.70
52739;DHT22;52466;40.122;18.318;2022-07-06T11:20:10;34.00;42.30
52739;DHT22;52466;40.122;18.318;2022-07-06T11:23:18;34.00;43.30
52739;DHT22;52466;40.122;18.318;2022-07-06T11:26:27;34.10;40.20
52739;DHT22;52466;40.122;18.318;2022-07-06T11:29:37;34.10;39.90
52739;DHT22;52466;40.122;18.318;2022-07-06T11:32:46;34.10;38.80
52739;DHT22;52466;40.122;18.318;2022-07-06T11:36:20;34.00;39.70
52739;DHT22;52466;40.122;18.318;2022-07-06T11:39:30;34.10;38.90
52739;DHT22;52466;40.122;18.318;2022-07-06T11:42:38;34.10;37.80
52739;DHT22;52466;40.122;18.318;2022-07-06T11:45:47;34.00;36.30
52739;DHT22;52466;40.122;18.318;2022-07-06T11:48:57;34.00;38.20
52739;DHT22;52466;40.122;18.318;2022-07-06T11:52:13;34.00;37.40
52739;DHT22;52466;40.122;18.318;2022-07-06T11:55:21;34.10;36.00
52739;DHT22;52466;40.122;18.318;2022-07-06T11:58:32;34.00;35.10
52739;DHT22;52466;40.122;18.318;2022-07-06T12:01:40;34.10;35.60
52739;DHT22;52466;40.122;18.318;2022-07-06T12:04:51;34.30;36.10
52739;DHT22;52466;40.122;18.318;2022-07-06T12:08:06;34.30;35.20
52739;DHT22;52466;40.122;18.318;2022-07-06T12:11:31;34.30;35.70
52739;DHT22;52466;40.122;18.318;2022-07-06T12:14:40;34.30;35.40
52739;DHT22;52466;40.122;18.318;2022-07-06T12:17:48;34.40;35.60
52739;DHT22;52466;40.122;18.318;2022-07-06T12:20:56;34.30;35.50
52739;DHT22;52466;40.122;18.318;2022-07-06T12:24:07;34.40;35.30
52739;DHT22;52466;40.122;18.318;2022-07-06T12:27:19;34.20;34.70
52739;DHT22;52466;40.122;18.318;2022-07-06T12:30:27;34.20;35.20
52739;DHT22;52466;40.122;18.318;2022-07-06T12:33:35;34.20;34.40
52739;DHT22;52466;40.122;18.318;2022-07-06T12:36:45;34.30;34.90
52739;DHT22;52466;40.122;18.318;2022-07-06T12:39:53;34.40;35.10
52739;DHT22;52466;40.122;18.318;2022-07-06T12:43:01;34.40;34.80
52739;DHT22;52466;40.122;18.318;2022-07-06T12:46:41;34.40;34.70
52739;DHT22;52466;40.122;18.318;2022-07-06T12:50:13;34.30;35.30
52739;DHT22;52466;40.122;18.318;2022-07-06T12:53:25;34.30;35.00
52739;DHT22;52466;40.122;18.318;2022-07-06T12:56:33;34.30;35.40
52739;DHT22;52466;40.122;18.318;2022-07-06T13:02:53;34.40;34.10
52739;DHT22;52466;40.122;18.318;2022-07-06T13:06:01;34.30;34.40
52739;DHT22;52466;40.122;18.318;2022-07-06T13:09:09;34.40;34.40
52739;DHT22;52466;40.122;18.318;2022-07-06T13:12:17;34.40;33.70
52739;DHT22;52466;40.122;18.318;2022-07-06T13:15:25;34.30;34.30
52739;DHT22;52466;40.122;18.318;2022-07-06T13:18:33;34.50;34.00
52739;DHT22;52466;40.122;18.318;2022-07-06T13:21:41;34.40;33.80
52739;DHT22;52466;40.122;18.318;2022-07-06T13:24:49;34.40;34.60
52739;DHT22;52466;40.122;18.318;2022-07-06T13:27:57;34.30;33.10
52739;DHT22;52466;40.122;18.318;2022-07-06T13:31:05;34.20;33.60
52739;DHT22;52466;40.122;18.318;2022-07-06T13:34:12;34.20;34.30
52739;DHT22;52466;40.122;18.318;2022-07-06T13:37:20;34.30;34.70
52739;DHT22;52466;40.122;18.318;2022-07-06T13:40:28;34.30;34.80
52739;DHT22;52466;40.122;18.318;2022-07-06T13:43:36;34.30;34.10
52739;DHT22;52466;40.122;18.318;2022-07-06T13:46:43;34.40;34.30
52739;DHT22;52466;40.122;18.318;2022-07-06T13:49:51;34.40;34.40
52739;DHT22;52466;40.122;18.318;2022-07-06T13:52:59;34.20;34.00
52739;DHT22;52466;40.122;18.318;2022-07-06T13:56:07;34.10;33.60
52739;DHT22;52466;40.122;18.318;2022-07-06T13:59:15;34.00;34.20
52739;DHT22;52466;40.122;18.318;2022-07-06T14:02:23;34.00;34.40
52739;DHT22;52466;40.122;18.318;2022-07-06T14:05:30;34.00;32.90
52739;DHT22;52466;40.122;18.318;2022-07-06T14:08:38;33.90;33.60
52739;DHT22;52466;40.122;18.318;2022-07-06T14:11:46;33.80;33.90
52739;DHT22;52466;40.122;18.318;2022-07-06T14:14:54;33.80;34.60
52739;DHT22;52466;40.122;18.318;2022-07-06T14:18:02;33.80;34.20
52739;DHT22;52466;40.122;18.318;2022-07-06T14:21:10;33.80;34.60
52739;DHT22;52466;40.122;18.318;2022-07-06T14:24:17;33.80;34.60
52739;DHT22;52466;40.122;18.318;2022-07-06T14:27:25;33.80;35.60
52739;DHT22;52466;40.122;18.318;2022-07-06T14:30:34;33.80;35.10
52739;DHT22;52466;40.122;18.318;2022-07-06T14:33:44;33.90;34.40
52739;DHT22;52466;40.122;18.318;2022-07-06T14:36:53;33.90;34.40
52739;DHT22;52466;40.122;18.318;2022-07-06T14:40:01;33.80;34.20
52739;DHT22;52466;40.122;18.318;2022-07-06T14:43:09;33.80;34.70
52739;DHT22;52466;40.122;18.318;2022-07-06T14:46:17;33.80;34.40
52739;DHT22;52466;40.122;18.318;2022-07-06T14:49:25;33.60;33.60
52739;DHT22;52466;40.122;18.318;2022-07-06T14:52:32;33.50;35.00
52739;DHT22;52466;40.122;18.318;2022-07-06T14:55:40;33.50;35.70
52739;DHT22;52466;40.122;18.318;2022-07-06T14:58:48;33.50;34.40
52739;DHT22;52466;40.122;18.318;2022-07-06T15:01:56;33.50;34.90
52739;DHT22;52466;40.122;18.318;2022-07-06T15:05:04;33.40;35.10
52739;DHT22;52466;40.122;18.318;2022-07-06T15:08:12;33.20;35.50
52739;DHT22;52466;40.122;18.318;2022-07-06T15:11:22;33.10;35.00
52739;DHT22;52466;40.122;18.318;2022-07-06T15:14:29;33.10;35.10
52739;DHT22;52466;40.122;18.318;2022-07-06T15:17:37;33.20;34.40
52739;DHT22;52466;40.122;18.318;2022-07-06T15:20:45;33.20;33.60
52739;DHT22;52466;40.122;18.318;2022-07-06T15:23:53;33.20;33.20
52739;DHT22;52466;40.122;18.318;2022-07-06T15:27:02;33.00;33.60
52739;DHT22;52466;40.122;18.318;2022-07-06T15:30:11;33.00;33.40
52739;DHT22;52466;40.122;18.318;2022-07-06T15:33:19;33.00;33.00
52739;DHT22;52466;40.122;18.318;2022-07-06T15:36:27;33.00;33.50
52739;DHT22;52466;40.122;18.318;2022-07-06T15:39:34;33.00;32.70
52739;DHT22;52466;40.122;18.318;2022-07-06T15:42:42;32.90;32.80
52739;DHT22;52466;40.122;18.318;2022-07-06T15:45:55;32.90;33.30
52739;DHT22;52466;40.122;18.318;2022-07-06T15:49:04;32.80;33.20
52739;DHT22;52466;40.122;18.318;2022-07-06T15:52:12;32.90;33.70
52739;DHT22;52466;40.122;18.318;2022-07-06T15:55:20;32.90;33.80
52739;DHT22;52466;40.122;18.318;2022-07-06T15:58:29;32.80;34.00
52739;DHT22;52466;40.122;18.318;2022-07-06T16:01:36;32.90;34.20
52739;DHT22;52466;40.122;18.318;2022-07-06T16:04:45;32.80;33.60
52739;DHT22;52466;40.122;18.318;2022-07-06T16:07:52;32.50;34.30
52739;DHT22;52466;40.122;18.318;2022-07-06T16:11:00;32.50;35.10
52739;DHT22;52466;40.122;18.318;2022-07-06T16:14:08;32.50;35.30
52739;DHT22;52466;40.122;18.318;2022-07-06T16:17:16;32.40;35.00
52739;DHT22;52466;40.122;18.318;2022-07-06T16:20:25;32.30;35.00
52739;DHT22;52466;40.122;18.318;2022-07-06T16:23:32;32.00;35.30
52739;DHT22;52466;40.122;18.318;2022-07-06T16:26:40;32.00;35.40
52739;DHT22;52466;40.122;18.318;2022-07-06T16:29:48;31.90;35.80
52739;DHT22;52466;40.122;18.318;2022-07-06T16:32:56;31.90;36.20
52739;DHT22;52466;40.122;18.318;2022-07-06T16:36:04;31.70;36.40
52739;DHT22;52466;40.122;18.318;2022-07-06T16:39:12;31.60;36.80
52739;DHT22;52466;40.122;18.318;2022-07-06T16:42:20;31.70;37.00
52739;DHT22;52466;40.122;18.318;2022-07-06T16:45:28;31.60;37.00
52739;DHT22;52466;40.122;18.318;2022-07-06T16:48:35;31.60;36.30
52739;DHT22;52466;40.122;18.318;2022-07-06T16:51:43;31.50;36.10
52739;DHT22;52466;40.122;18.318;2022-07-06T16:54:51;31.50;35.50
52739;DHT22;52466;40.122;18.318;2022-07-06T16:57:59;31.30;35.40
52739;DHT22;52466;40.122;18.318;2022-07-06T17:01:07;31.40;35.00
52739;DHT22;52466;40.122;18.318;2022-07-06T17:04:14;31.40;34.90
52739;DHT22;52466;40.122;18.318;2022-07-06T17:07:22;31.30;35.00
52739;DHT22;52466;40.122;18.318;2022-07-06T17:10:30;31.20;35.20
52739;DHT22;52466;40.122;18.318;2022-07-06T17:13:38;31.10;35.50
52739;DHT22;52466;40.122;18.318;2022-07-06T17:16:46;31.00;35.70
52739;DHT22;52466;40.122;18.318;2022-07-06T17:19:54;31.00;35.50
52739;DHT22;52466;40.122;18.318;2022-07-06T17:23:25;31.00;35.70
52739;DHT22;52466;40.122;18.318;2022-07-06T17:26:33;31.00;35.20
52739;DHT22;52466;40.122;18.318;2022-07-06T17:29:41;31.00;35.60
52739;DHT22;52466;40.122;18.318;2022-07-06T17:32:49;31.00;36.30
52739;DHT22;52466;40.122;18.318;2022-07-06T17:35:56;31.00;36.90
52739;DHT22;52466;40.122;18.318;2022-07-06T17:39:04;31.00;37.40
52739;DHT22;52466;40.122;18.318;2022-07-06T17:42:12;31.00;37.90
52739;DHT22;52466;40.122;18.318;2022-07-06T17:45:21;30.90;38.30
52739;DHT22;52466;40.122;18.318;2022-07-06T17:48:29;30.80;38.50
52739;DHT22;52466;40.122;18.318;2022-07-06T17:51:37;30.80;38.80
52739;DHT22;52466;40.122;18.318;2022-07-06T17:54:45;30.80;39.20
52739;DHT22;52466;40.122;18.318;2022-07-06T17:57:53;30.80;39.40
52739;DHT22;52466;40.122;18.318;2022-07-06T18:01:01;30.70;38.50
52739;DHT22;52466;40.122;18.318;2022-07-06T18:04:09;30.60;38.90
52739;DHT22;52466;40.122;18.318;2022-07-06T18:07:17;30.50;40.40
52739;DHT22;52466;40.122;18.318;2022-07-06T18:10:24;30.50;41.70
52739;DHT22;52466;40.122;18.318;2022-07-06T18:13:32;30.30;42.70
52739;DHT22;52466;40.122;18.318;2022-07-06T18:16:41;30.30;43.10
52739;DHT22;52466;40.122;18.318;2022-07-06T18:19:49;30.20;43.80
52739;DHT22;52466;40.122;18.318;2022-07-06T18:22:57;30.00;44.60
52739;DHT22;52466;40.122;18.318;2022-07-06T18:26:08;29.90;45.30
52739;DHT22;52466;40.122;18.318;2022-07-06T18:29:16;29.80;45.70
52739;DHT22;52466;40.122;18.318;2022-07-06T18:32:24;29.80;46.10
52739;DHT22;52466;40.122;18.318;2022-07-06T18:35:31;29.80;46.50
52739;DHT22;52466;40.122;18.318;2022-07-06T18:38:40;29.70;47.70
52739;DHT22;52466;40.122;18.318;2022-07-06T18:41:48;29.70;48.10
52739;DHT22;52466;40.122;18.318;2022-07-06T18:44:55;29.60;49.40
52739;DHT22;52466;40.122;18.318;2022-07-06T18:48:06;29.50;50.10
52739;DHT22;52466;40.122;18.318;2022-07-06T18:51:18;29.50;50.30
52739;DHT22;52466;40.122;18.318;2022-07-06T18:54:26;29.50;50.90
52739;DHT22;52466;40.122;18.318;2022-07-06T18:57:34;29.50;51.10
52739;DHT22;52466;40.122;18.318;2022-07-06T19:00:42;29.50;51.20
52739;DHT22;52466;40.122;18.318;2022-07-06T19:03:50;29.50;51.30
52739;DHT22;52466;40.122;18.318;2022-07-06T19:06:58;29.40;51.20
52739;DHT22;52466;40.122;18.318;2022-07-06T19:10:06;29.30;51.20
52739;DHT22;52466;40.122;18.318;2022-07-06T19:13:14;29.20;51.40
52739;DHT22;52466;40.122;18.318;2022-07-06T19:16:23;29.00;51.40
52739;DHT22;52466;40.122;18.318;2022-07-06T19:19:31;29.00;51.60
52739;DHT22;52466;40.122;18.318;2022-07-06T19:22:39;28.90;52.20
52739;DHT22;52466;40.122;18.318;2022-07-06T19:25:47;28.80;52.50
52739;DHT22;52466;40.122;18.318;2022-07-06T19:28:56;28.80;52.90
52739;DHT22;52466;40.122;18.318;2022-07-06T19:32:04;28.70;53.10
52739;DHT22;52466;40.122;18.318;2022-07-06T19:35:12;28.70;53.30
52739;DHT22;52466;40.122;18.318;2022-07-06T19:38:20;28.70;53.50
52739;DHT22;52466;40.122;18.318;2022-07-06T19:41:27;28.60;53.50
52739;DHT22;52466;40.122;18.318;2022-07-06T19:44:35;28.50;53.60